sensor_id;sensor_type;location;lat;lon;timestamp;P1;durP1;ratioP1;P2;durP2;ratioP2
26780;SDS011;14366;49.184;8.054;2023-06-10T00:01:22;5.57;;;5.07;;
26780;SDS011;14366;49.184;8.054;2023-06-10T00:06:42;7.70;;;5.20;;
26780;SDS011;14366;49.184;8.054;2023-06-10T00:12:18;5.90;;;5.10;;
26780;SDS011;14366;49.184;8.054;2023-06-10T00:17:54;5.60;;;5.10;;
26780;SDS011;14366;49.184;8.054;2023-06-10T00:23:29;5.50;;;5.00;;
26780;SDS011;14366;49.184;8.054;2023-06-10T00:29:05;5.73;;;5.13;;
26780;SDS011;14366;49.184;8.054;2023-06-10T00:34:40;5.53;;;5.03;;
26780;SDS011;14366;49.184;8.054;2023-06-10T00:40:15;5.50;;;4.80;;
26780;SDS011;14366;49.184;8.054;2023-06-10T00:45:52;6.03;;;5.45;;
26780;SDS011;14366;49.184;8.054;2023-06-10T00:51:28;5.30;;;4.80;;
26780;SDS011;14366;49.184;8.054;2023-06-10T00:57:03;6.14;;;5.42;;
26780;SDS011;14366;49.184;8.054;2023-06-10T01:02:40;8.60;;;5.40;;
26780;SDS011;14366;49.184;8.054;2023-06-10T01:08:16;6.57;;;5.50;;
26780;SDS011;14366;49.184;8.054;2023-06-10T01:13:49;6.77;;;5.00;;
26780;SDS011;14366;49.184;8.054;2023-06-10T01:19:24;6.93;;;5.50;;
26780;SDS011;14366;49.184;8.054;2023-06-10T01:30:06;5.25;;;4.40;;
26780;SDS011;14366;49.184;8.054;2023-06-10T01:35:42;5.37;;;4.82;;
26780;SDS011;14366;49.184;8.054;2023-06-10T01:41:16;5.60;;;4.95;;
26780;SDS011;14366;49.184;8.054;2023-06-10T01:46:52;6.05;;;4.75;;
26780;SDS011;14366;49.184;8.054;2023-06-10T01:52:26;5.15;;;4.75;;
26780;SDS011;14366;49.184;8.054;2023-06-10T01:57:46;5.60;;;5.10;;
26780;SDS011;14366;49.184;8.054;2023-06-10T02:03:23;5.20;;;4.70;;
26780;SDS011;14366;49.184;8.054;2023-06-10T02:08:57;5.35;;;4.60;;
26780;SDS011;14366;49.184;8.054;2023-06-10T02:14:32;5.10;;;4.60;;
26780;SDS011;14366;49.184;8.054;2023-06-10T02:20:09;5.20;;;4.70;;
26780;SDS011;14366;49.184;8.054;2023-06-10T02:25:44;5.50;;;5.00;;
26780;SDS011;14366;49.184;8.054;2023-06-10T02:31:19;5.07;;;4.60;;
26780;SDS011;14366;49.184;8.054;2023-06-10T02:36:56;5.87;;;4.80;;
26780;SDS011;14366;49.184;8.054;2023-06-10T02:42:30;7.75;;;5.07;;
26780;SDS011;14366;49.184;8.054;2023-06-10T02:47:50;5.20;;;4.70;;
26780;SDS011;14366;49.184;8.054;2023-06-10T02:53:12;6.80;;;4.93;;
26780;SDS011;14366;49.184;8.054;2023-06-10T02:58:46;5.17;;;4.67;;
26780;SDS011;14366;49.184;8.054;2023-06-10T03:04:07;5.22;;;4.72;;
26780;SDS011;14366;49.184;8.054;2023-06-10T03:09:45;5.60;;;4.50;;
26780;SDS011;14366;49.184;8.054;2023-06-10T03:15:19;5.85;;;4.35;;
26780;SDS011;14366;49.184;8.054;2023-06-10T03:20:40;4.93;;;4.50;;
26780;SDS011;14366;49.184;8.054;2023-06-10T03:26:17;5.50;;;4.67;;
26780;SDS011;14366;49.184;8.054;2023-06-10T03:31:53;5.10;;;4.60;;
26780;SDS011;14366;49.184;8.054;2023-06-10T03:42:34;6.43;;;4.80;;
26780;SDS011;14366;49.184;8.054;2023-06-10T03:53:13;5.57;;;4.77;;
26780;SDS011;14366;49.184;8.054;2023-06-10T03:58:53;5.45;;;4.62;;
26780;SDS011;14366;49.184;8.054;2023-06-10T04:04:28;7.20;;;5.00;;
26780;SDS011;14366;49.184;8.054;2023-06-10T04:09:48;9.75;;;5.10;;
26780;SDS011;14366;49.184;8.054;2023-06-10T04:15:25;7.80;;;4.80;;
26780;SDS011;14366;49.184;8.054;2023-06-10T04:21:02;6.10;;;5.00;;
26780;SDS011;14366;49.184;8.054;2023-06-10T04:26:37;7.55;;;5.37;;
26780;SDS011;14366;49.184;8.054;2023-06-10T04:32:13;6.30;;;5.04;;
26780;SDS011;14366;49.184;8.054;2023-06-10T04:37:49;7.90;;;4.77;;
26780;SDS011;14366;49.184;8.054;2023-06-10T04:43:25;5.14;;;4.72;;
26780;SDS011;14366;49.184;8.054;2023-06-10T04:49:02;7.20;;;4.93;;
26780;SDS011;14366;49.184;8.054;2023-06-10T04:54:37;6.55;;;5.25;;
26780;SDS011;14366;49.184;8.054;2023-06-10T04:59:57;5.40;;;4.90;;
26780;SDS011;14366;49.184;8.054;2023-06-10T05:05:18;5.75;;;4.70;;
26780;SDS011;14366;49.184;8.054;2023-06-10T05:10:53;7.43;;;4.60;;
26780;SDS011;14366;49.184;8.054;2023-06-10T05:16:26;5.72;;;5.00;;
26780;SDS011;14366;49.184;8.054;2023-06-10T05:21:47;5.25;;;4.75;;
26780;SDS011;14366;49.184;8.054;2023-06-10T05:32:27;7.62;;;4.97;;
26780;SDS011;14366;49.184;8.054;2023-06-10T05:37:48;5.20;;;4.50;;
26780;SDS011;14366;49.184;8.054;2023-06-10T05:43:23;6.20;;;4.75;;
26780;SDS011;14366;49.184;8.054;2023-06-10T05:48:43;7.55;;;4.90;;
26780;SDS011;14366;49.184;8.054;2023-06-10T05:54:04;6.30;;;5.20;;
26780;SDS011;14366;49.184;8.054;2023-06-10T05:59:37;8.63;;;5.12;;
26780;SDS011;14366;49.184;8.054;2023-06-10T06:05:13;5.24;;;4.68;;
26780;SDS011;14366;49.184;8.054;2023-06-10T06:10:49;5.65;;;4.80;;
26780;SDS011;14366;49.184;8.054;2023-06-10T06:16:24;5.85;;;4.62;;
26780;SDS011;14366;49.184;8.054;2023-06-10T06:21:44;6.15;;;5.30;;
26780;SDS011;14366;49.184;8.054;2023-06-10T06:27:20;7.00;;;4.85;;
26780;SDS011;14366;49.184;8.054;2023-06-10T06:32:56;5.65;;;4.85;;
26780;SDS011;14366;49.184;8.054;2023-06-10T06:38:31;5.47;;;4.97;;
26780;SDS011;14366;49.184;8.054;2023-06-10T06:43:53;7.62;;;5.03;;
26780;SDS011;14366;49.184;8.054;2023-06-10T06:49:27;5.37;;;4.87;;
26780;SDS011;14366;49.184;8.054;2023-06-10T06:54:48;9.95;;;5.10;;
26780;SDS011;14366;49.184;8.054;2023-06-10T07:00:25;5.30;;;4.80;;
26780;SDS011;14366;49.184;8.054;2023-06-10T07:06:01;5.40;;;4.87;;
26780;SDS011;14366;49.184;8.054;2023-06-10T07:16:27;6.80;;;5.50;;
26780;SDS011;14366;49.184;8.054;2023-06-10T07:22:03;5.93;;;5.32;;
26780;SDS011;14366;49.184;8.054;2023-06-10T07:27:24;7.70;;;5.07;;
26780;SDS011;14366;49.184;8.054;2023-06-10T07:32:47;5.55;;;4.80;;
26780;SDS011;14366;49.184;8.054;2023-06-10T07:38:21;6.30;;;5.20;;
26780;SDS011;14366;49.184;8.054;2023-06-10T07:43:56;6.20;;;5.17;;
26780;SDS011;14366;49.184;8.054;2023-06-10T07:49:33;6.80;;;5.60;;
26780;SDS011;14366;49.184;8.054;2023-06-10T07:55:07;7.00;;;4.90;;
26780;SDS011;14366;49.184;8.054;2023-06-10T08:00:28;6.35;;;5.30;;
26780;SDS011;14366;49.184;8.054;2023-06-10T08:06:05;5.85;;;5.25;;
26780;SDS011;14366;49.184;8.054;2023-06-10T08:11:39;5.68;;;4.75;;
26780;SDS011;14366;49.184;8.054;2023-06-10T08:17:12;5.83;;;4.50;;
26780;SDS011;14366;49.184;8.054;2023-06-10T08:22:35;4.84;;;4.16;;
26780;SDS011;14366;49.184;8.054;2023-06-10T08:28:09;4.95;;;4.45;;
26780;SDS011;14366;49.184;8.054;2023-06-10T08:33:44;5.20;;;4.70;;
26780;SDS011;14366;49.184;8.054;2023-06-10T08:39:06;5.40;;;4.62;;
26780;SDS011;14366;49.184;8.054;2023-06-10T08:49:46;6.75;;;4.93;;
26780;SDS011;14366;49.184;8.054;2023-06-10T09:00:27;6.23;;;4.40;;
26780;SDS011;14366;49.184;8.054;2023-06-10T09:06:02;5.32;;;4.10;;
26780;SDS011;14366;49.184;8.054;2023-06-10T09:11:37;4.50;;;4.10;;
26780;SDS011;14366;49.184;8.054;2023-06-10T09:17:13;5.55;;;4.50;;
26780;SDS011;14366;49.184;8.054;2023-06-10T09:22:47;6.68;;;4.60;;
26780;SDS011;14366;49.184;8.054;2023-06-10T09:28:23;7.57;;;4.63;;
26780;SDS011;14366;49.184;8.054;2023-06-10T09:34:06;5.25;;;4.70;;
26780;SDS011;14366;49.184;8.054;2023-06-10T09:44:49;7.40;;;4.20;;
26780;SDS011;14366;49.184;8.054;2023-06-10T09:50:25;7.03;;;4.60;;
26780;SDS011;14366;49.184;8.054;2023-06-10T09:56:00;5.43;;;4.53;;
26780;SDS011;14366;49.184;8.054;2023-06-10T10:01:35;5.78;;;4.36;;
26780;SDS011;14366;49.184;8.054;2023-06-10T10:06:57;9.98;;;8.15;;
26780;SDS011;14366;49.184;8.054;2023-06-10T10:17:34;6.00;;;4.30;;
26780;SDS011;14366;49.184;8.054;2023-06-10T10:23:10;7.15;;;4.40;;
26780;SDS011;14366;49.184;8.054;2023-06-10T10:28:45;6.15;;;4.10;;
26780;SDS011;14366;49.184;8.054;2023-06-10T10:34:21;4.55;;;4.15;;
26780;SDS011;14366;49.184;8.054;2023-06-10T10:39:56;4.57;;;4.07;;
26780;SDS011;14366;49.184;8.054;2023-06-10T10:45:31;5.03;;;4.20;;
26780;SDS011;14366;49.184;8.054;2023-06-10T10:51:06;4.50;;;4.10;;
26780;SDS011;14366;49.184;8.054;2023-06-10T11:02:48;4.15;;;3.70;;
26780;SDS011;14366;49.184;8.054;2023-06-10T11:14:27;4.45;;;4.05;;
26780;SDS011;14366;49.184;8.054;2023-06-10T11:25:21;5.75;;;3.97;;
26780;SDS011;14366;49.184;8.054;2023-06-10T11:30:57;5.45;;;3.90;;
26780;SDS011;14366;49.184;8.054;2023-06-10T11:36:30;4.43;;;3.87;;
26780;SDS011;14366;49.184;8.054;2023-06-10T11:42:05;4.43;;;4.03;;
26780;SDS011;14366;49.184;8.054;2023-06-10T11:47:39;6.60;;;4.10;;
26780;SDS011;14366;49.184;8.054;2023-06-10T11:53:11;5.15;;;4.45;;
26780;SDS011;14366;49.184;8.054;2023-06-10T11:58:32;4.18;;;3.78;;
26780;SDS011;14366;49.184;8.054;2023-06-10T12:03:57;5.25;;;4.00;;
26780;SDS011;14366;49.184;8.054;2023-06-10T12:09:30;5.40;;;3.70;;
26780;SDS011;14366;49.184;8.054;2023-06-10T12:15:05;4.40;;;3.78;;
26780;SDS011;14366;49.184;8.054;2023-06-10T12:20:39;4.05;;;3.62;;
26780;SDS011;14366;49.184;8.054;2023-06-10T12:26:14;4.60;;;4.20;;
26780;SDS011;14366;49.184;8.054;2023-06-10T12:37:28;5.18;;;4.16;;
26780;SDS011;14366;49.184;8.054;2023-06-10T12:43:03;5.22;;;4.70;;
26780;SDS011;14366;49.184;8.054;2023-06-10T12:48:43;5.32;;;4.37;;
26780;SDS011;14366;49.184;8.054;2023-06-10T12:54:14;4.85;;;3.90;;
26780;SDS011;14366;49.184;8.054;2023-06-10T12:59:49;4.62;;;3.83;;
26780;SDS011;14366;49.184;8.054;2023-06-10T13:10:29;5.10;;;3.83;;
26780;SDS011;14366;49.184;8.054;2023-06-10T13:16:04;3.65;;;3.35;;
26780;SDS011;14366;49.184;8.054;2023-06-10T13:26:44;3.75;;;3.45;;
26780;SDS011;14366;49.184;8.054;2023-06-10T13:37:24;5.03;;;3.70;;
26780;SDS011;14366;49.184;8.054;2023-06-10T13:43:00;7.35;;;3.67;;
26780;SDS011;14366;49.184;8.054;2023-06-10T13:48:35;3.50;;;3.20;;
26780;SDS011;14366;49.184;8.054;2023-06-10T13:53:56;6.60;;;3.60;;
26780;SDS011;14366;49.184;8.054;2023-06-10T13:59:32;3.60;;;3.30;;
26780;SDS011;14366;49.184;8.054;2023-06-10T14:05:08;4.47;;;3.20;;
26780;SDS011;14366;49.184;8.054;2023-06-10T14:10:29;3.95;;;3.00;;
26780;SDS011;14366;49.184;8.054;2023-06-10T14:15:52;3.36;;;3.06;;
26780;SDS011;14366;49.184;8.054;2023-06-10T14:21:26;3.97;;;3.00;;
26780;SDS011;14366;49.184;8.054;2023-06-10T14:27:01;3.35;;;3.05;;
26780;SDS011;14366;49.184;8.054;2023-06-10T14:32:38;4.33;;;2.57;;
26780;SDS011;14366;49.184;8.054;2023-06-10T14:38:12;7.32;;;3.20;;
26780;SDS011;14366;49.184;8.054;2023-06-10T14:48:41;3.03;;;2.70;;
26780;SDS011;14366;49.184;8.054;2023-06-10T14:54:13;3.22;;;2.92;;
26780;SDS011;14366;49.184;8.054;2023-06-10T14:59:34;7.47;;;3.07;;
26780;SDS011;14366;49.184;8.054;2023-06-10T15:05:11;3.03;;;2.70;;
26780;SDS011;14366;49.184;8.054;2023-06-10T15:10:45;3.12;;;2.83;;
26780;SDS011;14366;49.184;8.054;2023-06-10T15:16:20;4.73;;;3.00;;
26780;SDS011;14366;49.184;8.054;2023-06-10T15:21:57;4.30;;;2.95;;
26780;SDS011;14366;49.184;8.054;2023-06-10T15:27:31;4.80;;;2.90;;
26780;SDS011;14366;49.184;8.054;2023-06-10T15:32:51;7.62;;;3.20;;
26780;SDS011;14366;49.184;8.054;2023-06-10T15:43:18;3.45;;;2.92;;
26780;SDS011;14366;49.184;8.054;2023-06-10T15:48:53;3.20;;;2.90;;
26780;SDS011;14366;49.184;8.054;2023-06-10T15:54:13;3.10;;;2.80;;
26780;SDS011;14366;49.184;8.054;2023-06-10T15:59:36;2.80;;;2.60;;
26780;SDS011;14366;49.184;8.054;2023-06-10T16:05:11;4.10;;;3.00;;
26780;SDS011;14366;49.184;8.054;2023-06-10T16:10:46;3.20;;;2.90;;
26780;SDS011;14366;49.184;8.054;2023-06-10T16:16:23;4.10;;;2.80;;
26780;SDS011;14366;49.184;8.054;2023-06-10T16:21:58;3.85;;;2.72;;
26780;SDS011;14366;49.184;8.054;2023-06-10T16:27:19;3.50;;;2.88;;
26780;SDS011;14366;49.184;8.054;2023-06-10T16:32:38;3.30;;;3.00;;
26780;SDS011;14366;49.184;8.054;2023-06-10T16:38:13;3.15;;;2.85;;
26780;SDS011;14366;49.184;8.054;2023-06-10T16:43:34;3.55;;;3.25;;
26780;SDS011;14366;49.184;8.054;2023-06-10T16:49:10;4.78;;;2.90;;
26780;SDS011;14366;49.184;8.054;2023-06-10T16:59:49;3.58;;;2.78;;
26780;SDS011;14366;49.184;8.054;2023-06-10T17:05:11;3.42;;;3.12;;
26780;SDS011;14366;49.184;8.054;2023-06-10T17:10:46;3.70;;;3.15;;
26780;SDS011;14366;49.184;8.054;2023-06-10T17:16:07;3.87;;;3.22;;
26780;SDS011;14366;49.184;8.054;2023-06-10T17:21:43;3.60;;;3.00;;
26780;SDS011;14366;49.184;8.054;2023-06-10T17:27:18;3.78;;;3.10;;
26780;SDS011;14366;49.184;8.054;2023-06-10T17:37:44;3.22;;;2.92;;
26780;SDS011;14366;49.184;8.054;2023-06-10T17:43:19;5.05;;;3.60;;
26780;SDS011;14366;49.184;8.054;2023-06-10T17:48:54;4.55;;;3.00;;
26780;SDS011;14366;49.184;8.054;2023-06-10T17:54:13;3.50;;;3.20;;
26780;SDS011;14366;49.184;8.054;2023-06-10T17:59:48;3.77;;;3.47;;
26780;SDS011;14366;49.184;8.054;2023-06-10T18:05:09;5.50;;;3.30;;
26780;SDS011;14366;49.184;8.054;2023-06-10T18:10:45;4.53;;;3.42;;
26780;SDS011;14366;49.184;8.054;2023-06-10T18:16:20;4.00;;;3.60;;
26780;SDS011;14366;49.184;8.054;2023-06-10T18:26:58;4.05;;;3.30;;
26780;SDS011;14366;49.184;8.054;2023-06-10T18:37:50;5.65;;;3.60;;
26780;SDS011;14366;49.184;8.054;2023-06-10T18:43:10;4.20;;;3.30;;
26780;SDS011;14366;49.184;8.054;2023-06-10T18:48:27;8.10;;;3.70;;
26780;SDS011;14366;49.184;8.054;2023-06-10T18:53:48;6.05;;;4.10;;
26780;SDS011;14366;49.184;8.054;2023-06-10T18:59:24;3.78;;;3.47;;
26780;SDS011;14366;49.184;8.054;2023-06-10T19:04:57;3.90;;;3.50;;
26780;SDS011;14366;49.184;8.054;2023-06-10T19:10:18;4.10;;;3.70;;
26780;SDS011;14366;49.184;8.054;2023-06-10T19:15:54;4.55;;;4.15;;
26780;SDS011;14366;49.184;8.054;2023-06-10T19:21:29;8.52;;;3.83;;
26780;SDS011;14366;49.184;8.054;2023-06-10T19:27:04;5.85;;;3.80;;
26780;SDS011;14366;49.184;8.054;2023-06-10T19:32:40;5.43;;;3.58;;
26780;SDS011;14366;49.184;8.054;2023-06-10T19:38:15;4.13;;;3.73;;
26780;SDS011;14366;49.184;8.054;2023-06-10T19:43:50;4.43;;;3.83;;
26780;SDS011;14366;49.184;8.054;2023-06-10T19:49:12;6.22;;;3.40;;
26780;SDS011;14366;49.184;8.054;2023-06-10T19:54:47;3.97;;;3.50;;
26780;SDS011;14366;49.184;8.054;2023-06-10T20:00:08;4.20;;;3.72;;
26780;SDS011;14366;49.184;8.054;2023-06-10T20:05:45;3.60;;;3.25;;
26780;SDS011;14366;49.184;8.054;2023-06-10T20:11:20;4.28;;;3.30;;
26780;SDS011;14366;49.184;8.054;2023-06-10T20:16:41;5.38;;;2.98;;
26780;SDS011;14366;49.184;8.054;2023-06-10T20:22:17;3.50;;;3.20;;
26780;SDS011;14366;49.184;8.054;2023-06-10T20:27:52;3.92;;;3.47;;
26780;SDS011;14366;49.184;8.054;2023-06-10T20:33:27;3.47;;;3.17;;
26780;SDS011;14366;49.184;8.054;2023-06-10T20:39:04;4.46;;;3.50;;
26780;SDS011;14366;49.184;8.054;2023-06-10T20:49:40;4.55;;;3.40;;
26780;SDS011;14366;49.184;8.054;2023-06-10T20:55:17;6.47;;;3.83;;
26780;SDS011;14366;49.184;8.054;2023-06-10T21:00:49;4.90;;;3.10;;
26780;SDS011;14366;49.184;8.054;2023-06-10T21:06:10;6.05;;;3.50;;
26780;SDS011;14366;49.184;8.054;2023-06-10T21:11:32;4.26;;;3.86;;
26780;SDS011;14366;49.184;8.054;2023-06-10T21:17:06;4.67;;;3.17;;
26780;SDS011;14366;49.184;8.054;2023-06-10T21:22:26;4.12;;;3.74;;
26780;SDS011;14366;49.184;8.054;2023-06-10T21:27:49;4.00;;;3.60;;
26780;SDS011;14366;49.184;8.054;2023-06-10T21:33:23;3.70;;;3.40;;
26780;SDS011;14366;49.184;8.054;2023-06-10T21:38:43;4.18;;;3.70;;
26780;SDS011;14366;49.184;8.054;2023-06-10T21:44:06;4.20;;;3.80;;
26780;SDS011;14366;49.184;8.054;2023-06-10T21:49:40;4.87;;;3.80;;
26780;SDS011;14366;49.184;8.054;2023-06-10T21:55:15;4.30;;;3.90;;
26780;SDS011;14366;49.184;8.054;2023-06-10T22:00:52;4.65;;;3.67;;
26780;SDS011;14366;49.184;8.054;2023-06-10T22:06:26;4.78;;;3.80;;
26780;SDS011;14366;49.184;8.054;2023-06-10T22:17:07;5.07;;;3.87;;
26780;SDS011;14366;49.184;8.054;2023-06-10T22:22:39;4.30;;;3.85;;
26780;SDS011;14366;49.184;8.054;2023-06-10T22:33:20;6.20;;;4.60;;
26780;SDS011;14366;49.184;8.054;2023-06-10T22:38:55;8.15;;;4.50;;
26780;SDS011;14366;49.184;8.054;2023-06-10T22:44:32;5.57;;;4.22;;
26780;SDS011;14366;49.184;8.054;2023-06-10T22:50:08;7.60;;;4.10;;
26780;SDS011;14366;49.184;8.054;2023-06-10T22:55:44;4.70;;;4.20;;
26780;SDS011;14366;49.184;8.054;2023-06-10T23:01:16;6.05;;;4.50;;
26780;SDS011;14366;49.184;8.054;2023-06-10T23:06:52;7.20;;;4.90;;
26780;SDS011;14366;49.184;8.054;2023-06-10T23:12:25;7.70;;;4.40;;
26780;SDS011;14366;49.184;8.054;2023-06-10T23:17:45;4.98;;;4.52;;
26780;SDS011;14366;49.184;8.054;2023-06-10T23:28:25;5.07;;;4.43;;
26780;SDS011;14366;49.184;8.054;2023-06-10T23:34:00;6.77;;;4.83;;
26780;SDS011;14366;49.184;8.054;2023-06-10T23:39:35;5.77;;;4.80;;
26780;SDS011;14366;49.184;8.054;2023-06-10T23:44:56;5.20;;;4.80;;
26780;SDS011;14366;49.184;8.054;2023-06-10T23:50:32;4.94;;;4.44;;
26780;SDS011;14366;49.184;8.054;2023-06-10T23:56:07;5.30;;;4.53;;
